Time;durP1;ratioP1;P1;durP2;ratioP2;P2;SDS_P1;SDS_P2;PMS_P1;PMS_P2;Temp;Humidity;BMP_temperature;BMP_pressure;BME280_temperature;BME280_humidity;BME280_pressure;Samples;Min_cycle;Max_cycle;Signal;HPM_P1;HPM_P2
2022/04/16 00:00:51;;;;;;;22.52;14.52;;;7.00;99.90;;;;;;4825404;29;20090;-70
2022/04/16 00:03:17;;;;;;;17.33;13.95;;;7.00;99.90;;;;;;4809012;29;20054;-69
2022/04/16 00:05:42;;;;;;;20.17;14.30;;;6.90;99.90;;;;;;4809215;29;20106;-70
2022/04/16 00:08:08;;;;;;;21.35;16.38;;;6.90;99.90;;;;;;4825350;29;20504;-69
2022/04/16 00:10:35;;;;;;;21.02;14.70;;;6.90;99.90;;;;;;4825484;29;20488;-69
2022/04/16 00:13:01;;;;;;;23.10;16.33;;;6.80;99.90;;;;;;4807983;29;20062;-70
2022/04/16 00:15:27;;;;;;;21.67;15.10;;;6.80;99.90;;;;;;4823993;29;20050;-70
2022/04/16 00:17:53;;;;;;;20.77;15.90;;;6.80;99.90;;;;;;4841089;29;20057;-69
2022/04/16 00:20:18;;;;;;;21.60;15.95;;;6.80;99.90;;;;;;4841918;29;20111;-69
2022/04/16 00:22:44;;;;;;;24.95;16.30;;;6.70;99.90;;;;;;4824937;29;20058;-69
2022/04/16 00:25:11;;;;;;;21.85;15.98;;;6.70;99.90;;;;;;4825276;29;20476;-69
2022/04/16 00:27:39;;;;;;;23.25;16.58;;;6.60;99.90;;;;;;4824756;29;20486;-69
2022/04/16 00:30:05;;;;;;;22.42;15.90;;;6.60;99.90;;;;;;4824703;29;20519;-69
2022/04/16 00:32:31;;;;;;;22.38;16.42;;;6.60;99.90;;;;;;4823417;29;20502;-69
2022/04/16 00:34:56;;;;;;;21.20;16.48;;;6.60;99.90;;;;;;4808566;29;20141;-69
2022/04/16 00:37:22;;;;;;;22.65;15.70;;;6.50;99.90;;;;;;4808937;29;20073;-69
2022/04/16 00:39:47;;;;;;;21.65;15.82;;;6.60;99.90;;;;;;4824796;29;20352;-70
2022/04/16 00:42:13;;;;;;;22.13;16.83;;;6.50;99.90;;;;;;4808205;29;20055;-69
2022/04/16 00:44:39;;;;;;;24.08;17.02;;;6.40;99.90;;;;;;4824926;29;20493;-70
2022/04/16 00:47:05;;;;;;;26.40;17.48;;;6.40;99.90;;;;;;4824977;29;20058;-69
2022/04/16 00:49:31;;;;;;;23.13;16.02;;;6.40;99.90;;;;;;4824833;29;20145;-69
2022/04/16 00:51:57;;;;;;;23.52;17.23;;;6.40;99.90;;;;;;4824597;29;20834;-69
2022/04/16 00:54:22;;;;;;;24.80;16.83;;;6.40;99.90;;;;;;4824108;29;20451;-69
2022/04/16 00:56:48;;;;;;;24.98;17.75;;;6.30;99.90;;;;;;4807202;29;20100;-70
2022/04/16 00:59:28;;;;;;;23.98;17.65;;;6.30;99.90;;;;;;4824923;29;20149;-70
2022/04/16 01:01:54;;;;;;;26.30;17.38;;;6.30;99.90;;;;;;4807847;29;20503;-69
2022/04/16 01:04:19;;;;;;;27.00;18.10;;;6.30;99.90;;;;;;4824353;29;20054;-69
2022/04/16 01:06:48;;;;;;;24.90;18.13;;;6.20;99.90;;;;;;4808194;29;20122;-69
2022/04/16 01:09:14;;;;;;;26.63;17.75;;;6.30;99.90;;;;;;4824311;29;20149;-69
2022/04/16 01:11:41;;;;;;;27.23;18.20;;;6.20;99.90;;;;;;4807149;29;20055;-69
2022/04/16 01:14:06;;;;;;;28.48;19.00;;;6.20;99.90;;;;;;4824100;29;20122;-69
2022/04/16 01:16:34;;;;;;;29.45;19.50;;;6.20;99.90;;;;;;4813835;29;20535;-69
2022/04/16 01:19:01;;;;;;;25.52;19.13;;;6.20;99.90;;;;;;4817548;29;20080;-69
2022/04/16 01:21:27;;;;;;;32.67;19.73;;;6.20;99.90;;;;;;4824154;29;20548;-69
2022/04/16 01:23:56;;;;;;;28.15;18.75;;;6.20;99.90;;;;;;4823922;29;20453;-69
2022/04/16 01:26:22;;;;;;;28.10;18.98;;;6.00;99.90;;;;;;4807340;29;20125;-69
2022/04/16 01:28:48;;;;;;;26.60;18.48;;;6.20;99.90;;;;;;4821917;29;20133;-69
2022/04/16 01:31:13;;;;;;;31.25;20.15;;;6.10;99.90;;;;;;4823972;29;20062;-69
2022/04/16 01:33:39;;;;;;;31.02;19.10;;;6.20;99.90;;;;;;4824073;29;20529;-69
2022/04/16 01:36:05;;;;;;;28.95;19.55;;;6.10;99.90;;;;;;4807754;29;20113;-69
2022/04/16 01:38:31;;;;;;;27.33;19.27;;;6.20;99.90;;;;;;4824119;29;20123;-69
2022/04/16 01:40:57;;;;;;;27.13;18.30;;;6.10;99.90;;;;;;4807739;29;20476;-69
2022/04/16 01:43:23;;;;;;;26.55;19.02;;;6.10;99.90;;;;;;4823817;29;20050;-69
2022/04/16 01:45:50;;;;;;;26.98;19.33;;;6.10;99.90;;;;;;4807180;29;20042;-69
2022/04/16 01:48:19;;;;;;;26.00;18.67;;;6.00;99.90;;;;;;4824023;29;20050;-69
2022/04/16 01:50:46;;;;;;;27.42;20.02;;;6.10;99.90;;;;;;4823881;29;20054;-69
2022/04/16 01:53:11;;;;;;;29.80;19.00;;;6.00;99.90;;;;;;4806266;29;20496;-69
2022/04/16 01:55:37;;;;;;;28.50;18.85;;;6.10;99.90;;;;;;4823106;29;20050;-69
2022/04/16 01:58:06;;;;;;;28.35;18.65;;;6.00;99.90;;;;;;4822179;29;20062;-69
2022/04/16 02:00:33;;;;;;;31.00;19.55;;;5.90;99.90;;;;;;4824038;29;20115;-69
2022/04/16 02:02:59;;;;;;;27.15;19.48;;;5.90;99.90;;;;;;4823258;29;20054;-69
2022/04/16 02:05:25;;;;;;;27.75;19.15;;;6.00;99.90;;;;;;4823979;29;20047;-69
2022/04/16 02:07:51;;;;;;;29.20;19.13;;;5.90;99.90;;;;;;4823486;29;20051;-69
2022/04/16 02:10:23;;;;;;;28.55;19.73;;;5.90;99.90;;;;;;4823951;29;20059;-69
2022/04/16 02:12:48;;;;;;;31.05;19.58;;;5.90;99.90;;;;;;4806767;29;20077;-69
2022/04/16 02:15:14;;;;;;;28.27;19.38;;;5.90;99.90;;;;;;4822644;29;20539;-69
2022/04/16 02:17:40;;;;;;;31.15;19.17;;;5.80;99.90;;;;;;4821972;29;20058;-69
2022/04/16 02:20:08;;;;;;;30.05;20.00;;;5.80;99.90;;;;;;4806995;29;20057;-69
2022/04/16 02:22:41;;;;;;;26.90;19.10;;;5.80;99.90;;;;;;4823396;29;20066;-69
2022/04/16 02:25:09;;;;;;;24.55;18.25;;;5.70;99.90;;;;;;4806901;29;20062;-69
2022/04/16 02:27:35;;;;;;;27.63;19.98;;;5.70;99.90;;;;;;4825322;29;20456;-69
2022/04/16 02:30:03;;;;;;;30.23;21.25;;;5.70;99.90;;;;;;4826197;29;20133;-69
2022/04/16 02:32:29;;;;;;;28.13;20.05;;;5.60;99.90;;;;;;4810373;29;20069;-69
2022/04/16 02:34:56;;;;;;;29.17;18.48;;;5.60;99.90;;;;;;4826687;29;20054;-69
2022/04/16 02:37:22;;;;;;;32.45;20.33;;;5.60;99.90;;;;;;4810171;29;20058;-69
2022/04/16 02:39:47;;;;;;;29.42;19.27;;;5.60;99.90;;;;;;4809490;29;20062;-69
2022/04/16 02:42:13;;;;;;;35.60;21.25;;;5.60;99.90;;;;;;4825672;29;20085;-69
2022/04/16 02:47:23;;;;;;;34.40;21.23;;;5.60;99.90;;;;;;4809537;29;20054;-69
2022/04/16 02:49:48;;;;;;;32.25;20.77;;;5.60;99.90;;;;;;4822807;29;20070;-69
2022/04/16 02:52:14;;;;;;;34.15;21.77;;;5.60;99.90;;;;;;4807962;29;20066;-69
2022/04/16 02:54:39;;;;;;;40.00;22.80;;;5.60;99.90;;;;;;4808503;29;20086;-69
2022/04/16 02:57:05;;;;;;;38.83;22.50;;;5.60;99.90;;;;;;4819334;29;20058;-69
2022/04/16 02:59:33;;;;;;;38.70;23.48;;;5.60;99.90;;;;;;4811557;29;20067;-69
2022/04/16 03:01:59;;;;;;;39.50;23.25;;;5.60;99.90;;;;;;4825665;29;20050;-69
2022/04/16 03:04:26;;;;;;;35.80;22.42;;;5.60;99.90;;;;;;4825983;29;20050;-69
2022/04/16 03:06:52;;;;;;;34.08;22.50;;;5.60;99.90;;;;;;4815205;29;20055;-69
2022/04/16 03:09:18;;;;;;;37.40;23.63;;;5.60;99.90;;;;;;4776687;29;20045;-69
2022/04/16 03:11:43;;;;;;;35.67;23.08;;;5.60;99.90;;;;;;4807360;29;20467;-69
2022/04/16 03:19:37;;;;;;;39.78;24.30;;;5.60;99.90;;;;;;4821784;29;20054;-69
2022/04/16 03:22:03;;;;;;;39.88;23.95;;;5.60;99.90;;;;;;4822535;29;20111;-69
2022/04/16 03:24:28;;;;;;;41.30;23.95;;;5.50;99.90;;;;;;4825437;29;20069;-69
2022/04/16 03:26:54;;;;;;;37.78;22.65;;;5.50;99.90;;;;;;4816126;29;20093;-69
2022/04/16 03:29:19;;;;;;;41.40;24.65;;;5.60;99.90;;;;;;4807549;29;20059;-69
2022/04/16 03:31:45;;;;;;;46.88;24.38;;;5.60;99.90;;;;;;4806852;29;20085;-69
2022/04/16 03:34:11;;;;;;;43.35;24.90;;;5.50;99.90;;;;;;4808610;29;20438;-69
2022/04/16 03:36:36;;;;;;;40.83;23.98;;;5.50;99.90;;;;;;4818912;29;20063;-69
2022/04/16 03:39:03;;;;;;;39.08;24.85;;;5.50;99.90;;;;;;4815992;29;20066;-68
2022/04/16 03:41:28;;;;;;;46.60;25.58;;;5.70;99.90;;;;;;4824142;29;20050;-68
2022/04/16 03:43:54;;;;;;;46.33;26.73;;;5.60;99.90;;;;;;4806916;29;20053;-69
2022/04/16 03:46:19;;;;;;;40.63;24.23;;;5.70;99.90;;;;;;4795139;29;20503;-69
2022/04/16 03:48:45;;;;;;;43.50;25.23;;;5.70;99.90;;;;;;4819907;29;20043;-69
2022/04/16 03:51:10;;;;;;;40.22;23.58;;;5.70;99.90;;;;;;4805721;29;20051;-69
2022/04/16 03:53:36;;;;;;;46.20;26.55;;;5.70;99.90;;;;;;4821695;29;20048;-69
2022/04/16 04:01:29;;;;;;;41.35;24.52;;;5.80;99.90;;;;;;4840962;29;20090;-69
2022/04/16 04:03:55;;;;;;;39.50;23.88;;;5.80;99.90;;;;;;4825058;29;20523;-69
2022/04/16 04:06:20;;;;;;;37.45;23.33;;;5.90;99.90;;;;;;4825737;29;20490;-69
2022/04/16 04:08:46;;;;;;;37.28;23.80;;;5.90;99.90;;;;;;4808981;29;20457;-69
2022/04/16 04:11:12;;;;;;;36.17;22.90;;;6.00;99.90;;;;;;4813622;29;20058;-69
2022/04/16 04:13:37;;;;;;;37.17;23.30;;;6.00;99.90;;;;;;4823724;29;20062;-69
2022/04/16 04:16:03;;;;;;;39.45;24.17;;;6.10;99.90;;;;;;4824125;29;20054;-69
2022/04/16 04:18:29;;;;;;;36.90;22.95;;;6.20;99.90;;;;;;4825121;29;20089;-70
2022/04/16 04:20:56;;;;;;;34.67;23.13;;;6.40;99.90;;;;;;4825420;29;20484;-69
2022/04/16 04:23:22;;;;;;;33.13;22.42;;;6.60;99.90;;;;;;4808462;29;20050;-69
2022/04/16 04:25:48;;;;;;;30.60;21.17;;;6.50;99.90;;;;;;4825125;29;20060;-69
2022/04/16 04:28:14;;;;;;;33.67;23.02;;;6.60;99.90;;;;;;4808045;29;20137;-69
2022/04/16 04:30:40;;;;;;;33.10;21.00;;;6.70;99.90;;;;;;4825159;29;20129;-69
2022/04/16 04:33:05;;;;;;;28.13;19.75;;;6.70;99.90;;;;;;4824252;29;20054;-71
2022/04/16 04:35:31;;;;;;;30.15;21.25;;;6.80;99.90;;;;;;4815768;29;20050;-69
2022/04/16 04:37:56;;;;;;;28.58;20.55;;;6.80;99.90;;;;;;4824241;29;20512;-69
2022/04/16 04:40:22;;;;;;;26.75;19.20;;;6.90;99.90;;;;;;4815425;29;20146;-70
2022/04/16 04:42:47;;;;;;;27.83;20.05;;;7.00;99.90;;;;;;4807318;29;20147;-69
2022/04/16 04:45:15;;;;;;;28.25;20.23;;;7.00;99.90;;;;;;4807635;29;20476;-69
2022/04/16 04:47:40;;;;;;;27.20;20.05;;;7.00;99.90;;;;;;4825404;29;20050;-69
2022/04/16 04:50:07;;;;;;;29.15;20.58;;;7.00;99.90;;;;;;4817972;29;20054;-69
2022/04/16 04:52:35;;;;;;;30.08;20.67;;;7.10;99.90;;;;;;4824332;29;20093;-69
2022/04/16 04:55:01;;;;;;;28.42;20.88;;;7.20;99.90;;;;;;4803634;29;20089;-69
2022/04/16 04:57:27;;;;;;;30.23;20.05;;;7.10;99.90;;;;;;4790122;29;20109;-69
2022/04/16 04:59:53;;;;;;;28.77;20.17;;;7.20;99.90;;;;;;4820051;29;20055;-69
2022/04/16 05:02:19;;;;;;;29.27;20.77;;;7.20;99.90;;;;;;4820855;29;20057;-69
2022/04/16 05:04:45;;;;;;;26.23;19.52;;;7.20;99.90;;;;;;4808735;29;20047;-69
2022/04/16 05:07:11;;;;;;;24.35;18.15;;;7.20;99.90;;;;;;4812235;29;20058;-69
2022/04/16 05:09:37;;;;;;;27.05;19.10;;;7.30;99.90;;;;;;4815836;29;20054;-69
2022/04/16 05:12:28;;;;;;;25.30;17.50;;;7.30;99.90;;;;;;4829487;29;20056;-69
2022/04/16 05:14:54;;;;;;;25.33;18.67;;;7.30;99.90;;;;;;4828505;29;20098;-69
2022/04/16 05:17:21;;;;;;;27.58;19.02;;;7.30;99.90;;;;;;4842280;29;20445;-69
2022/04/16 05:19:46;;;;;;;24.83;16.90;;;7.40;99.90;;;;;;4841656;29;20125;-69
2022/04/16 05:22:13;;;;;;;24.15;16.83;;;7.30;99.90;;;;;;4839045;29;20061;-69
2022/04/16 05:24:38;;;;;;;26.63;16.40;;;7.30;99.90;;;;;;4823947;29;20058;-70
2022/04/16 05:27:04;;;;;;;24.15;16.42;;;7.40;99.90;;;;;;4827387;29;20500;-70
2022/04/16 05:29:48;;;;;;;21.65;15.52;;;7.50;99.90;;;;;;4824115;29;20105;-70
2022/04/16 05:32:16;;;;;;;24.23;16.88;;;7.60;99.90;;;;;;4824919;29;20091;-71
2022/04/16 05:34:42;;;;;;;22.95;15.13;;;7.50;99.90;;;;;;4822891;29;20047;-71
2022/04/16 05:37:07;;;;;;;18.80;14.35;;;7.60;99.90;;;;;;4824003;29;20114;-71
2022/04/16 05:39:33;;;;;;;20.40;14.70;;;7.60;99.90;;;;;;4824336;29;20137;-70
2022/04/16 05:41:58;;;;;;;19.92;14.27;;;7.70;99.90;;;;;;4816093;29;20181;-72
2022/04/16 05:44:24;;;;;;;21.13;14.18;;;7.70;99.90;;;;;;4811228;29;20071;-68
2022/04/16 05:46:50;;;;;;;19.00;13.75;;;7.80;99.90;;;;;;4807524;29;20055;-70
2022/04/16 05:49:15;;;;;;;20.45;13.70;;;7.90;99.90;;;;;;4793045;29;20064;-70
2022/04/16 05:51:41;;;;;;;21.10;14.13;;;7.90;99.90;;;;;;4822420;29;20051;-69
2022/04/16 05:54:07;;;;;;;20.40;13.63;;;8.00;99.90;;;;;;4822918;29;20078;-69
2022/04/16 06:01:00;;;;;;;22.77;14.35;;;8.10;99.90;;;;;;4822342;29;20135;-70
2022/04/16 06:03:25;;;;;;;17.83;12.48;;;8.20;99.90;;;;;;4806684;29;20058;-70
2022/04/16 06:05:56;;;;;;;20.38;12.82;;;8.20;99.90;;;;;;4808870;29;20073;-70
2022/04/16 06:08:22;;;;;;;20.02;13.48;;;8.20;99.90;;;;;;4824618;29;20062;-70
2022/04/16 06:10:55;;;;;;;18.05;12.65;;;8.30;99.90;;;;;;4818128;29;20081;-70
2022/04/16 06:13:24;;;;;;;20.52;13.50;;;8.30;99.90;;;;;;4811470;29;20126;-70
2022/04/16 06:15:49;;;;;;;16.80;12.40;;;8.30;99.90;;;;;;4793055;29;20066;-70
2022/04/16 06:23:24;;;;;;;;;;;;;;;;;;;;;
2022/04/16 06:31:08;;;;;;;;;;;;;;;;;;;;;
2022/04/16 06:33:41;;;;;;;18.52;12.77;;;8.40;99.90;;;;;;4819496;29;20069;-70
2022/04/16 06:41:06;;;;;;;16.88;12.00;;;8.40;99.90;;;;;;4833815;29;20040;-70
2022/04/16 07:35:34;;;;;;;13.00;9.75;;;9.80;99.90;;;;;;5851219;24;19935;31
2022/04/16 07:38:54;;;;;;;15.15;10.23;;;10.00;99.90;;;;;;4753293;30;20075;-71
2022/04/16 07:45:43;;;;;;;13.32;8.68;;;10.10;99.90;;;;;;4754418;30;20141;-70
2022/04/16 07:56:53;;;;;;;10.50;7.85;;;10.80;99.90;;;;;;4754185;30;20096;-69
2022/04/16 07:59:54;;;;;;;11.38;8.40;;;10.60;99.90;;;;;;4751919;30;20071;-69
2022/04/16 08:02:22;;;;;;;9.68;7.57;;;10.50;99.90;;;;;;4754620;30;20052;-70
2022/04/16 08:04:58;;;;;;;;;;;;;;;;;;;;;
2022/04/16 08:07:33;;;;;;;9.40;6.57;;;10.50;99.90;;;;;;4755140;30;20048;-69
2022/04/16 08:09:59;;;;;;;10.80;6.82;;;10.50;99.90;;;;;;4755168;30;20405;-69
2022/04/16 08:16:06;;;;;;;8.65;6.00;;;10.50;99.90;;;;;;4767982;30;20060;-70
2022/04/16 08:18:36;;;;;;;8.23;6.40;;;10.60;99.90;;;;;;4754863;30;20055;-69
2022/04/16 08:21:06;;;;;;;7.60;5.30;;;10.80;99.90;;;;;;4754413;30;20104;-68
2022/04/16 08:51:34;;;;;;;3.30;2.45;;;11.00;99.90;;;;;;4683737;30;20054;-74
2022/04/16 09:10:40;;;;;;;3.90;2.58;;;11.60;99.90;;;;;;4770038;30;20038;-69
2022/04/16 09:13:47;;;;;;;;;;;11.70;99.20;;;;;;4732570;30;20060;-70
2022/04/16 09:20:18;;;;;;;4.57;2.25;;;12.00;79.60;;;;;;4732712;30;20456;-69
2022/04/16 09:23:18;;;;;;;3.25;2.80;;;11.90;97.80;;;;;;4718025;30;20521;-69
2022/04/16 09:26:09;;;;;;;3.42;2.60;;;12.10;90.50;;;;;;4748373;30;20125;-69
2022/04/16 09:32:25;;;;;;;6.63;2.45;;;12.20;76.00;;;;;;4757942;30;20101;-69
2022/04/16 09:39:10;;;;;;;3.25;2.20;;;12.10;74.10;;;;;;4769664;30;20520;-69
2022/04/16 09:49:17;;;;;;;2.88;2.25;;;12.30;71.60;;;;;;4768017;30;20504;-70
2022/04/16 09:51:45;;;;;;;2.13;1.85;;;12.40;71.60;;;;;;4752863;30;20079;-67
2022/04/16 09:54:11;;;;;;;2.72;2.25;;;12.50;72.90;;;;;;4768310;30;20056;-67
2022/04/16 09:56:39;;;;;;;2.42;2.05;;;12.70;72.50;;;;;;4769876;30;20366;-68
2022/04/16 09:59:09;;;;;;;3.45;2.20;;;12.70;68.90;;;;;;4753341;30;20059;-67
2022/04/16 10:04:41;;;;;;;2.92;1.60;;;12.80;69.20;;;;;;4752939;30;20056;-67
2022/04/16 10:07:33;;;;;;;4.75;1.70;;;13.00;68.90;;;;;;4754150;30;20181;-68
2022/04/16 10:10:17;;;;;;;;;;;13.00;65.40;;;;;;4769484;30;20544;-67
2022/04/16 10:13:04;;;;;;;1.85;1.52;;;13.20;65.70;;;;;;4765736;30;19971;-67
2022/04/16 10:16:13;;;;;;;3.10;1.58;;;13.20;65.10;;;;;;4765236;30;20079;-68
2022/04/16 10:19:13;;;;;;;1.85;1.13;;;13.30;61.80;;;;;;4766521;30;20052;-67
2022/04/16 10:21:41;;;;;;;2.10;1.05;;;13.20;60.70;;;;;;4769324;30;20112;-67
2022/04/16 10:24:06;;;;;;;2.95;1.30;;;13.20;62.50;;;;;;4769398;30;20059;-67
2022/04/16 10:26:38;;;;;;;3.05;1.30;;;13.30;62.00;;;;;;4767458;30;20059;-69
2022/04/16 10:29:07;;;;;;;2.67;1.10;;;13.40;61.00;;;;;;4776536;29;20122;-69
2022/04/16 10:31:47;;;;;;;2.08;1.02;;;13.30;58.50;;;;;;4768546;30;20051;-68
2022/04/16 10:34:18;;;;;;;0.95;0.88;;;13.40;58.80;;;;;;4739598;30;20051;-66
2022/04/16 10:40:33;;;;;;;7.05;1.60;;;13.50;56.60;;;;;;4765918;30;20083;-66
2022/04/16 10:43:01;;;;;;;1.38;1.13;;;13.60;57.70;;;;;;4768350;30;20055;-67
2022/04/16 10:46:27;;;;;;;1.25;0.80;;;13.70;59.60;;;;;;4752387;30;20071;-68
2022/04/16 10:48:57;;;;;;;1.77;0.90;;;13.70;55.10;;;;;;4759599;30;20052;-69
2022/04/16 10:51:25;;;;;;;0.82;0.60;;;13.80;54.80;;;;;;4770244;30;20161;-69
2022/04/16 10:53:52;;;;;;;2.95;0.80;;;13.80;53.50;;;;;;4770034;30;20066;-67
2022/04/16 10:56:22;;;;;;;2.50;0.85;;;13.80;53.00;;;;;;4756961;30;20410;-68
2022/04/16 10:59:12;;;;;;;1.52;0.90;;;13.90;54.70;;;;;;4771160;30;20114;-69
2022/04/16 11:02:01;;;;;;;0.88;0.70;;;14.00;54.40;;;;;;4772824;30;20379;-68
2022/04/16 11:04:27;;;;;;;2.35;0.80;;;14.10;55.00;;;;;;4771712;30;20218;-68
2022/04/16 11:06:57;;;;;;;0.95;0.70;;;14.10;53.00;;;;;;4756328;30;20131;-68
2022/04/16 11:10:14;;;;;;;1.60;0.75;;;13.90;49.90;;;;;;4770191;30;20136;-68
2022/04/16 11:13:30;;;;;;;1.95;1.20;;;13.90;51.40;;;;;;4771427;30;20052;-69
2022/04/16 11:23:17;;;;;;;2.53;1.00;;;14.10;54.20;;;;;;4766387;30;20056;-68
2022/04/16 11:35:27;;;;;;;1.88;1.15;;;14.50;52.50;;;;;;4736829;30;20127;-67
2022/04/16 11:37:56;;;;;;;0.77;0.77;;;14.60;52.60;;;;;;4752291;30;20136;-68
2022/04/16 11:40:21;;;;;;;1.52;1.00;;;14.70;53.30;;;;;;4763347;30;20502;-69
2022/04/16 11:42:47;;;;;;;1.25;0.90;;;14.70;53.50;;;;;;4771591;30;20055;-68
2022/04/16 11:45:14;;;;;;;3.10;1.30;;;14.80;51.90;;;;;;4771512;30;20098;-68
2022/04/16 11:47:40;;;;;;;1.52;0.80;;;14.70;52.30;;;;;;4771558;30;20064;-67
2022/04/16 11:50:08;;;;;;;2.50;0.90;;;14.70;52.20;;;;;;4771756;30;20529;-68
2022/04/16 11:52:34;;;;;;;3.95;1.00;;;14.80;50.70;;;;;;4771151;30;20469;-67
2022/04/16 11:58:29;;;;;;;1.98;1.10;;;14.70;48.80;;;;;;4754266;30;20067;-68
2022/04/16 12:04:55;;;;;;;1.88;1.50;;;14.80;49.60;;;;;;4770679;30;20047;-70
2022/04/16 12:07:24;;;;;;;1.88;0.90;;;14.90;50.50;;;;;;4771197;30;20047;-68
2022/04/16 12:09:52;;;;;;;1.52;1.10;;;15.00;49.20;;;;;;4771334;30;20079;-68
2022/04/16 12:12:24;;;;;;;1.30;0.90;;;15.00;49.60;;;;;;4770684;30;20055;-67
2022/04/16 12:14:52;;;;;;;1.35;0.95;;;14.90;48.90;;;;;;4771167;30;20074;-67
2022/04/16 12:17:52;;;;;;;1.92;1.10;;;14.90;47.50;;;;;;4771512;30;20066;-68
2022/04/16 12:20:20;;;;;;;1.17;0.95;;;14.80;46.00;;;;;;4753130;30;20064;-68
2022/04/16 12:23:10;;;;;;;1.85;1.23;;;14.90;48.90;;;;;;4754969;30;20059;-70
2022/04/16 12:25:37;;;;;;;2.30;1.10;;;14.90;48.80;;;;;;4770349;30;20523;-67
2022/04/16 12:28:05;;;;;;;1.80;0.93;;;15.00;48.80;;;;;;4770852;30;20056;-68
2022/04/16 12:30:35;;;;;;;3.58;1.05;;;15.00;48.30;;;;;;4770172;30;20048;-66
2022/04/16 12:33:03;;;;;;;2.88;1.00;;;15.00;47.80;;;;;;4754985;30;20131;-67
2022/04/16 12:35:37;;;;;;;3.30;0.93;;;15.10;48.00;;;;;;4754721;30;20052;-67
2022/04/16 12:38:04;;;;;;;1.73;0.95;;;15.40;48.80;;;;;;4770878;30;20456;-68
2022/04/16 12:40:31;;;;;;;2.70;1.05;;;15.20;48.90;;;;;;4753940;30;20410;-69
2022/04/16 12:43:22;;;;;;;1.50;1.00;;;15.20;49.00;;;;;;4769234;30;20055;-67
2022/04/16 12:46:24;;;;;;;1.75;1.20;;;15.30;48.40;;;;;;4769434;30;20054;-68
2022/04/16 12:48:50;;;;;;;1.33;1.00;;;15.50;47.60;;;;;;4753984;30;20075;-67
2022/04/16 12:51:16;;;;;;;1.08;0.95;;;15.50;47.90;;;;;;4754016;30;20869;-68
2022/04/16 12:53:42;;;;;;;1.33;1.10;;;15.60;47.50;;;;;;4766632;30;20459;-69
2022/04/16 12:56:11;;;;;;;3.00;0.98;;;15.60;47.40;;;;;;4770185;30;20063;-68
2022/04/16 12:58:36;;;;;;;1.55;0.98;;;15.50;47.20;;;;;;4769703;30;20064;-68
2022/04/16 13:01:07;;;;;;;1.38;1.08;;;15.50;47.10;;;;;;4754248;30;20089;-68
2022/04/16 13:03:32;;;;;;;3.90;1.08;;;15.50;46.60;;;;;;4754395;30;20563;-68
2022/04/16 13:06:04;;;;;;;2.33;1.17;;;15.50;47.60;;;;;;4770175;30;20143;-68
2022/04/16 13:08:32;;;;;;;2.60;1.23;;;15.50;47.50;;;;;;4753203;30;20112;-68
2022/04/16 13:10:57;;;;;;;1.60;1.00;;;15.50;47.10;;;;;;4752828;30;20559;-66
2022/04/16 13:13:24;;;;;;;1.00;0.90;;;15.40;46.50;;;;;;4752883;30;20067;-66
2022/04/16 13:15:51;;;;;;;1.20;0.90;;;15.50;47.30;;;;;;4754923;30;20055;-66
2022/04/16 13:18:17;;;;;;;3.85;0.90;;;15.50;48.10;;;;;;4770402;30;20058;-65
2022/04/16 13:20:46;;;;;;;1.42;1.08;;;15.50;48.30;;;;;;4770667;30;20051;-68
2022/04/16 13:23:18;;;;;;;1.58;1.00;;;15.60;48.30;;;;;;4753889;30;20146;-67
2022/04/16 13:25:44;;;;;;;1.55;1.00;;;15.70;48.60;;;;;;4753486;30;20047;-67
2022/04/16 13:28:37;;;;;;;2.60;1.00;;;15.70;47.80;;;;;;4753628;30;20194;-67
2022/04/16 13:31:27;;;;;;;1.92;1.20;;;15.70;46.10;;;;;;4753583;30;20075;-67
2022/04/16 13:34:19;;;;;;;1.63;1.00;;;15.90;47.30;;;;;;4768909;30;20116;-67
2022/04/16 13:37:10;;;;;;;1.90;0.88;;;15.90;47.50;;;;;;4753921;30;20082;-68
2022/04/16 13:42:46;;;;;;;2.00;1.30;;;15.90;47.70;;;;;;4766847;30;20402;-67
2022/04/16 13:48:13;;;;;;;1.20;1.10;;;15.90;46.90;;;;;;4769432;30;20067;-66
2022/04/16 13:50:41;;;;;;;2.85;1.15;;;15.90;46.90;;;;;;4768433;30;20048;-66
2022/04/16 13:53:08;;;;;;;1.63;1.10;;;16.00;46.10;;;;;;4753021;30;20063;-66
2022/04/16 13:55:36;;;;;;;4.70;1.40;;;15.90;47.10;;;;;;4757593;30;20135;-67
2022/04/16 13:58:02;;;;;;;1.45;0.80;;;16.10;47.50;;;;;;4752745;30;20470;-67
2022/04/16 14:00:28;;;;;;;3.33;1.15;;;16.20;47.40;;;;;;4767361;30;20052;-66
2022/04/16 14:03:00;;;;;;;4.22;1.45;;;16.20;47.80;;;;;;4769967;30;20060;-68
2022/04/16 14:08:58;;;;;;;1.98;1.05;;;16.30;45.50;;;;;;4768525;30;20174;-67
2022/04/16 14:11:24;;;;;;;1.92;1.20;;;16.50;45.90;;;;;;4778786;30;20124;-67
2022/04/16 14:13:52;;;;;;;2.75;1.85;;;16.10;46.10;;;;;;4751857;30;20143;-68
2022/04/16 14:16:43;;;;;;;1.52;1.17;;;16.10;46.60;;;;;;4768847;30;20051;-67
2022/04/16 14:19:10;;;;;;;2.15;1.33;;;16.20;45.10;;;;;;4768527;30;20060;-67
2022/04/16 14:21:41;;;;;;;1.42;1.10;;;16.10;45.10;;;;;;4765967;30;20052;-68
2022/04/16 14:24:06;;;;;;;2.17;1.00;;;16.10;45.80;;;;;;4768863;30;20064;-66
2022/04/16 14:26:32;;;;;;;1.40;1.13;;;16.10;46.50;;;;;;4770121;30;20056;-67
2022/04/16 14:28:59;;;;;;;3.22;1.65;;;16.20;47.20;;;;;;4770824;30;20087;-67
2022/04/16 14:31:24;;;;;;;2.30;1.48;;;16.20;46.20;;;;;;4755621;30;20056;-66
2022/04/16 14:33:50;;;;;;;2.13;1.27;;;16.10;46.50;;;;;;4772268;30;20112;-67
2022/04/16 14:36:16;;;;;;;2.53;1.40;;;16.10;46.40;;;;;;4756233;30;20063;-68
2022/04/16 14:39:01;;;;;;;1.95;1.20;;;16.00;45.40;;;;;;4770162;30;20056;-69
2022/04/16 14:41:26;;;;;;;1.77;1.00;;;16.00;46.00;;;;;;4755660;30;20055;-69
2022/04/16 14:43:57;;;;;;;2.10;1.48;;;15.90;46.90;;;;;;4772370;30;20060;-67
2022/04/16 14:46:46;;;;;;;1.27;1.17;;;15.90;45.60;;;;;;4771551;30;20055;-67
2022/04/16 14:49:14;;;;;;;2.78;1.20;;;16.00;46.30;;;;;;4772720;30;20071;-69
2022/04/16 14:51:41;;;;;;;2.08;1.25;;;16.00;45.60;;;;;;4770722;30;20489;-69
2022/04/16 14:54:13;;;;;;;2.00;1.33;;;16.10;46.50;;;;;;4772335;30;20063;-69
2022/04/16 14:56:38;;;;;;;2.05;1.40;;;16.10;45.80;;;;;;4740901;30;20058;-69
2022/04/16 14:59:06;;;;;;;1.70;1.15;;;16.10;45.80;;;;;;4754923;30;20044;-68
2022/04/16 15:01:32;;;;;;;3.72;1.83;;;16.10;46.70;;;;;;4772315;30;20382;-69
2022/04/16 15:04:23;;;;;;;3.50;1.50;;;16.20;47.30;;;;;;4756174;30;20124;-69
2022/04/16 15:07:06;;;;;;;2.45;1.50;;;16.20;45.00;;;;;;4754752;30;20436;-69
2022/04/16 15:09:44;;;;;;;1.92;1.52;;;16.20;45.40;;;;;;4753364;30;20047;-68
2022/04/16 15:15:52;;;;;;;1.50;1.25;;;16.00;45.20;;;;;;4756000;30;20060;-69
2022/04/16 15:18:18;;;;;;;2.50;1.50;;;16.00;44.80;;;;;;4755358;30;20043;-69
2022/04/16 15:20:56;;;;;;;2.13;1.60;;;16.40;46.60;;;;;;4756240;30;20051;-68
2022/04/16 15:23:22;;;;;;;2.10;1.60;;;16.10;46.80;;;;;;4756407;30;20104;-68
2022/04/16 15:25:48;;;;;;;2.92;1.55;;;16.00;46.90;;;;;;4755181;30;20059;-68
2022/04/16 15:28:14;;;;;;;2.85;1.67;;;16.00;46.50;;;;;;4754167;30;20058;-68
2022/04/16 15:30:39;;;;;;;5.15;1.52;;;15.90;47.20;;;;;;4770610;30;20068;-68
2022/04/16 15:33:05;;;;;;;2.47;1.48;;;15.80;47.10;;;;;;4769964;30;20059;-70
2022/04/16 15:35:33;;;;;;;3.58;1.73;;;15.70;46.10;;;;;;4770878;30;20052;-69
2022/04/16 15:37:59;;;;;;;2.22;1.60;;;15.70;46.20;;;;;;4740735;30;20047;-69
2022/04/16 15:40:24;;;;;;;2.58;1.40;;;15.70;45.90;;;;;;4756222;30;20060;-69
2022/04/16 15:42:51;;;;;;;2.17;1.63;;;15.70;45.30;;;;;;4771355;30;20060;-69
2022/04/16 15:45:17;;;;;;;2.28;1.55;;;15.60;45.50;;;;;;4770565;30;20446;-69
2022/04/16 15:47:43;;;;;;;3.33;1.58;;;15.60;45.20;;;;;;4770907;30;20059;-68
2022/04/16 15:50:09;;;;;;;1.23;1.13;;;15.60;45.00;;;;;;4755706;30;20130;-69
2022/04/16 15:52:35;;;;;;;4.55;1.70;;;15.70;45.30;;;;;;4755353;30;20403;-69
2022/04/16 15:55:01;;;;;;;2.65;1.23;;;15.50;44.40;;;;;;4771841;30;20067;-68
2022/04/16 15:57:27;;;;;;;1.50;1.30;;;15.60;45.90;;;;;;4771202;30;20083;-68
2022/04/16 15:59:53;;;;;;;1.75;1.55;;;15.70;46.20;;;;;;4770395;30;20069;-69
2022/04/16 16:02:19;;;;;;;1.83;1.48;;;15.70;46.60;;;;;;4771289;30;20402;-68
2022/04/16 16:05:06;;;;;;;3.50;1.50;;;15.80;45.40;;;;;;4770451;30;20062;-69
2022/04/16 16:07:34;;;;;;;1.75;1.23;;;15.70;45.10;;;;;;4767582;30;20072;-68
2022/04/16 16:10:00;;;;;;;1.63;1.40;;;15.80;45.70;;;;;;4769965;30;20048;-68
2022/04/16 16:12:27;;;;;;;3.88;1.70;;;15.90;46.30;;;;;;4754268;30;20060;-68
2022/04/16 16:14:52;;;;;;;1.60;1.50;;;15.90;46.00;;;;;;4770693;30;20061;-68
2022/04/16 16:17:19;;;;;;;1.70;1.50;;;15.90;46.00;;;;;;4770126;30;20972;-69
2022/04/16 16:19:47;;;;;;;2.00;1.38;;;15.90;45.90;;;;;;4768361;30;20051;-68
2022/04/16 16:22:13;;;;;;;1.70;1.38;;;15.80;45.10;;;;;;4770285;30;20447;-69
2022/04/16 16:24:39;;;;;;;3.50;1.70;;;15.70;45.00;;;;;;4770325;30;20052;-69
2022/04/16 16:27:08;;;;;;;2.55;1.38;;;15.60;44.60;;;;;;4771122;30;20051;-68
2022/04/16 16:29:34;;;;;;;2.47;1.50;;;15.60;45.00;;;;;;4770850;30;20044;-67